createdAt,value
2023-02-20T00:02:14.308Z,9.70
2023-02-20T00:04:42.389Z,4.20
2023-02-20T00:07:10.646Z,4.27
2023-02-20T00:09:38.912Z,4.20
2023-02-20T00:12:08.924Z,3.80
2023-02-20T00:14:37.062Z,4.20
2023-02-20T00:17:05.279Z,3.37
2023-02-20T00:19:33.373Z,4.27
2023-02-20T00:22:01.480Z,3.67
2023-02-20T00:24:29.588Z,3.90
2023-02-20T00:26:57.840Z,3.60
2023-02-20T00:29:27.325Z,4.10
2023-02-20T00:31:57.328Z,3.40
2023-02-20T00:34:29.347Z,3.40
2023-02-20T00:36:57.552Z,3.80
2023-02-20T00:39:25.998Z,4.10
2023-02-20T00:41:55.878Z,4.03
2023-02-20T00:44:24.015Z,3.20
2023-02-20T00:46:53.664Z,3.97
2023-02-20T00:49:22.040Z,3.90
2023-02-20T00:51:50.177Z,4.40
2023-02-20T00:54:18.670Z,3.87
2023-02-20T00:56:46.836Z,3.33
2023-02-20T00:59:15.284Z,3.70
2023-02-20T01:01:43.590Z,4.00
2023-02-20T01:04:13.942Z,3.67
2023-02-20T01:06:43.490Z,3.93
2023-02-20T01:09:13.387Z,3.37
2023-02-20T01:11:43.605Z,4.20
2023-02-20T01:14:12.237Z,3.63
2023-02-20T01:16:45.500Z,3.90
2023-02-20T01:19:15.753Z,3.20
2023-02-20T01:21:44.476Z,3.67
2023-02-20T01:24:12.994Z,3.80
2023-02-20T01:26:42.747Z,3.83
2023-02-20T01:29:10.851Z,4.47
2023-02-20T01:31:39.174Z,3.90
2023-02-20T01:34:10.443Z,4.90
2023-02-20T01:36:39.981Z,3.77
2023-02-20T01:39:09.728Z,3.70
2023-02-20T01:41:37.940Z,4.20
2023-02-20T01:44:06.237Z,3.40
2023-02-20T01:46:51.533Z,4.50
2023-02-20T01:49:26.577Z,5.50
2023-02-20T01:52:01.182Z,5.43
2023-02-20T01:54:31.091Z,4.17
2023-02-20T01:57:01.969Z,3.80
2023-02-20T01:59:32.826Z,4.07
2023-02-20T02:02:01.654Z,4.33
2023-02-20T02:04:30.929Z,3.80
2023-02-20T02:07:00.797Z,4.10
2023-02-20T02:09:41.056Z,4.00
2023-02-20T02:12:11.219Z,4.50
2023-02-20T02:14:39.410Z,4.60
2023-02-20T02:17:26.853Z,3.57
2023-02-20T02:20:26.576Z,3.47
2023-02-20T02:23:22.588Z,3.30
2023-02-20T02:25:58.439Z,3.90
2023-02-20T02:28:57.284Z,3.80
2023-02-20T02:31:55.712Z,4.17
2023-02-20T02:35:03.872Z,3.90
2023-02-20T02:37:39.484Z,4.00
2023-02-20T02:40:15.106Z,3.23
2023-02-20T02:42:49.520Z,3.47
2023-02-20T02:45:24.478Z,4.77
2023-02-20T02:48:04.661Z,3.67
2023-02-20T02:50:36.738Z,3.97
2023-02-20T02:53:08.747Z,4.50
2023-02-20T02:55:37.688Z,3.80
2023-02-20T02:58:07.292Z,4.53
2023-02-20T03:00:39.400Z,4.17
2023-02-20T03:03:10.566Z,4.00
2023-02-20T03:05:46.609Z,4.27
2023-02-20T03:08:31.941Z,3.47
2023-02-20T03:11:06.653Z,3.97
2023-02-20T03:13:57.947Z,3.77
2023-02-20T03:16:31.459Z,3.73
2023-02-20T03:19:02.789Z,4.33
2023-02-20T03:21:35.262Z,4.00
2023-02-20T03:24:08.787Z,3.57
2023-02-20T03:26:39.773Z,4.50
2023-02-20T03:29:13.728Z,3.37
2023-02-20T03:31:46.612Z,4.17
2023-02-20T03:34:36.022Z,3.97
2023-02-20T03:37:25.167Z,3.90
2023-02-20T03:40:18.113Z,3.83
2023-02-20T03:43:08.095Z,4.37
2023-02-20T03:45:42.500Z,4.30
2023-02-20T03:48:17.803Z,3.30
2023-02-20T03:51:03.618Z,3.13
2023-02-20T03:53:39.931Z,3.40
2023-02-20T03:56:13.354Z,3.43
2023-02-20T03:58:47.265Z,3.33
2023-02-20T04:01:18.315Z,3.77
2023-02-20T04:03:49.360Z,3.33
2023-02-20T04:06:19.657Z,3.43
2023-02-20T04:08:53.536Z,3.10
2023-02-20T04:11:26.299Z,3.10
2023-02-20T04:13:56.488Z,3.17
2023-02-20T04:16:25.951Z,3.90
2023-02-20T04:18:54.552Z,3.73
2023-02-20T04:21:29.439Z,3.97
2023-02-20T04:24:05.486Z,3.50
2023-02-20T04:26:36.529Z,3.67
2023-02-20T04:29:05.974Z,4.33
2023-02-20T04:31:35.184Z,3.43
2023-02-20T04:34:03.417Z,4.80
2023-02-20T04:36:31.597Z,3.70
2023-02-20T04:39:01.356Z,3.53
2023-02-20T04:41:34.500Z,3.40
2023-02-20T04:44:20.221Z,4.20
2023-02-20T04:46:50.733Z,4.67
2023-02-20T04:49:18.954Z,3.60
2023-02-20T04:51:52.330Z,3.33
2023-02-20T04:54:20.946Z,3.73
2023-02-20T04:56:50.870Z,3.70
2023-02-20T04:59:19.526Z,3.70
2023-02-20T05:01:51.879Z,3.40
2023-02-20T05:04:20.751Z,3.43
2023-02-20T05:06:50.900Z,3.30
2023-02-20T05:09:19.185Z,3.57
2023-02-20T05:11:47.396Z,3.60
2023-02-20T05:14:17.392Z,3.30
2023-02-20T05:16:46.213Z,3.20
2023-02-20T05:19:15.180Z,3.80
2023-02-20T05:22:01.223Z,3.87
2023-02-20T05:24:29.865Z,3.10
2023-02-20T05:26:58.662Z,3.63
2023-02-20T05:29:28.310Z,3.93
2023-02-20T05:31:56.733Z,3.77
2023-02-20T05:34:25.936Z,4.47
2023-02-20T05:36:57.185Z,4.50
2023-02-20T05:39:25.298Z,4.53
2023-02-20T05:41:53.445Z,3.83
2023-02-20T05:44:21.568Z,3.60
2023-02-20T05:46:51.053Z,3.57
2023-02-20T05:49:19.391Z,3.87
2023-02-20T05:51:49.940Z,3.97
2023-02-20T05:54:18.165Z,4.43
2023-02-20T05:56:47.740Z,5.73
2023-02-20T05:59:18.539Z,6.30
2023-02-20T06:01:46.706Z,7.50
2023-02-20T06:04:16.503Z,7.30
2023-02-20T06:06:45.059Z,4.23
2023-02-20T06:09:16.622Z,5.10
2023-02-20T06:11:50.884Z,4.33
2023-02-20T06:14:20.464Z,4.20
2023-02-20T06:16:49.413Z,4.07
2023-02-20T06:19:23.352Z,3.70
2023-02-20T06:21:53.528Z,4.80
2023-02-20T06:24:22.272Z,3.80
2023-02-20T06:26:50.379Z,4.00
2023-02-20T06:29:18.715Z,3.93
2023-02-20T06:31:46.912Z,4.30
2023-02-20T06:34:15.856Z,4.77
2023-02-20T06:36:45.801Z,4.20
2023-02-20T06:39:16.757Z,3.83
2023-02-20T06:41:45.316Z,4.10
2023-02-20T06:44:13.407Z,3.83
2023-02-20T06:46:41.574Z,4.70
2023-02-20T06:49:11.104Z,4.20
2023-02-20T06:51:40.289Z,3.67
2023-02-20T06:54:12.139Z,4.57
2023-02-20T06:56:40.337Z,4.20
2023-02-20T06:59:09.192Z,5.00
2023-02-20T07:01:42.618Z,4.63
2023-02-20T07:04:17.263Z,4.47
2023-02-20T07:06:45.417Z,4.70
2023-02-20T07:09:15.133Z,4.77
2023-02-20T07:11:43.914Z,4.93
2023-02-20T07:14:12.008Z,5.70
2023-02-20T07:16:40.145Z,5.50
2023-02-20T07:19:08.407Z,5.37
2023-02-20T07:21:36.568Z,4.90
2023-02-20T07:24:05.096Z,5.00
2023-02-20T07:26:35.237Z,5.07
2023-02-20T07:29:03.311Z,4.47
2023-02-20T07:31:31.634Z,9.70
2023-02-20T07:34:00.318Z,16.07
2023-02-20T07:36:35.506Z,17.87
2023-02-20T07:39:06.627Z,13.80
2023-02-20T07:41:36.974Z,14.67
2023-02-20T07:44:06.793Z,14.10
2023-02-20T07:46:35.048Z,10.40
2023-02-20T07:49:04.325Z,12.40
2023-02-20T07:51:33.173Z,10.77
2023-02-20T07:54:01.414Z,7.60
2023-02-20T07:56:30.257Z,6.70
2023-02-20T07:59:01.046Z,6.90
2023-02-20T08:01:29.954Z,6.53
2023-02-20T08:03:58.170Z,6.70
2023-02-20T08:06:26.585Z,7.27
2023-02-20T08:08:55.057Z,7.87
2023-02-20T08:11:24.953Z,9.60
2023-02-20T08:13:55.746Z,7.50
2023-02-20T08:16:27.213Z,8.83
2023-02-20T08:18:55.807Z,7.80
2023-02-20T08:21:24.200Z,7.70
2023-02-20T08:23:52.732Z,7.17
2023-02-20T08:26:20.988Z,5.70
2023-02-20T08:28:49.950Z,5.70
2023-02-20T08:31:31.105Z,5.10
2023-02-20T08:34:01.652Z,4.77
2023-02-20T08:36:29.815Z,6.50
2023-02-20T08:39:00.116Z,5.03
2023-02-20T08:41:28.655Z,5.27
2023-02-20T08:43:57.114Z,4.10
2023-02-20T08:46:25.245Z,7.33
2023-02-20T08:48:53.492Z,4.20
2023-02-20T08:51:23.477Z,4.17
2023-02-20T08:53:51.567Z,4.60
2023-02-20T08:56:20.668Z,4.50
2023-02-20T08:58:48.947Z,3.83
2023-02-20T09:01:17.157Z,4.60
2023-02-20T09:03:45.531Z,4.30
2023-02-20T09:06:14.104Z,4.13
2023-02-20T09:08:43.786Z,5.33
2023-02-20T09:11:12.230Z,3.83
2023-02-20T09:13:44.657Z,4.40
2023-02-20T09:16:15.943Z,4.83
2023-02-20T09:18:45.524Z,6.23
2023-02-20T09:21:15.395Z,6.00
2023-02-20T09:23:45.029Z,5.43
2023-02-20T09:26:13.643Z,5.40
2023-02-20T09:28:41.936Z,5.30
2023-02-20T09:31:10.026Z,6.97
2023-02-20T09:33:38.223Z,5.17
2023-02-20T09:36:07.667Z,6.23
2023-02-20T09:38:35.930Z,6.07
2023-02-20T09:41:06.006Z,6.30
2023-02-20T09:43:46.326Z,5.60
2023-02-20T09:46:18.049Z,7.10
2023-02-20T09:49:01.940Z,5.90
2023-02-20T09:51:33.019Z,6.63
2023-02-20T09:54:07.034Z,6.50
2023-02-20T09:56:39.873Z,6.80
2023-02-20T09:59:14.323Z,5.57
2023-02-20T10:01:52.864Z,5.90
2023-02-20T10:04:24.879Z,6.20
2023-02-20T10:06:55.917Z,6.50
2023-02-20T10:09:24.037Z,6.00
2023-02-20T10:12:05.101Z,6.53
2023-02-20T10:14:58.032Z,6.33
2023-02-20T10:17:38.295Z,5.50
2023-02-20T10:20:14.382Z,5.73
2023-02-20T10:22:50.297Z,5.40
2023-02-20T10:25:26.038Z,6.03
2023-02-20T10:28:01.505Z,6.57
2023-02-20T10:30:33.716Z,6.00
2023-02-20T10:33:12.572Z,5.20
2023-02-20T10:35:45.412Z,6.27
2023-02-20T10:38:18.166Z,6.17
2023-02-20T10:40:49.924Z,5.20
2023-02-20T10:43:26.471Z,5.50
2023-02-20T10:46:02.711Z,4.80
2023-02-20T10:48:34.286Z,5.37
2023-02-20T10:51:07.635Z,4.63
2023-02-20T10:53:42.246Z,4.63
2023-02-20T10:56:13.397Z,4.50
2023-02-20T10:58:49.913Z,4.60
2023-02-20T11:01:23.086Z,4.13
2023-02-20T11:03:57.557Z,5.00
2023-02-20T11:06:31.464Z,3.50
2023-02-20T11:09:00.085Z,4.20
2023-02-20T11:11:33.410Z,4.37
2023-02-20T11:14:12.484Z,4.80
2023-02-20T11:16:45.344Z,4.80
2023-02-20T11:19:21.774Z,3.87
2023-02-20T11:21:51.334Z,5.27
2023-02-20T11:24:31.606Z,4.03
2023-02-20T11:27:04.165Z,12.67
2023-02-20T11:29:42.496Z,6.80
2023-02-20T11:32:26.384Z,3.90
2023-02-20T11:35:19.898Z,5.17
2023-02-20T11:37:55.166Z,7.70
2023-02-20T11:40:29.357Z,8.13
2023-02-20T11:42:57.855Z,4.57
2023-02-20T11:45:29.667Z,5.70
2023-02-20T11:48:10.064Z,3.50
2023-02-20T11:50:43.277Z,4.83
2023-02-20T11:53:20.770Z,3.00
2023-02-20T11:55:59.885Z,3.30
2023-02-20T11:58:29.355Z,3.60
2023-02-20T12:00:59.068Z,3.23
2023-02-20T12:03:29.576Z,2.33
2023-02-20T12:05:59.166Z,3.00
2023-02-20T12:08:41.058Z,3.17
2023-02-20T12:11:10.664Z,4.70
2023-02-20T12:13:41.346Z,5.60
2023-02-20T12:16:31.235Z,2.70
2023-02-20T12:19:09.633Z,2.83
2023-02-20T12:21:50.850Z,2.70
2023-02-20T12:24:50.428Z,3.10
2023-02-20T12:27:50.190Z,2.80
2023-02-20T12:30:42.046Z,1.97
2023-02-20T12:33:26.857Z,3.10
2023-02-20T12:36:01.191Z,2.80
2023-02-20T12:38:40.754Z,1.77
2023-02-20T12:41:25.633Z,2.47
2023-02-20T12:44:13.385Z,2.40
2023-02-20T12:46:52.450Z,2.70
2023-02-20T12:49:43.895Z,2.30
2023-02-20T12:52:28.370Z,1.50
2023-02-20T12:55:03.416Z,1.90
2023-02-20T12:57:43.527Z,2.50
2023-02-20T13:00:23.509Z,2.17
2023-02-20T13:02:57.058Z,2.10
2023-02-20T13:05:28.583Z,1.97
2023-02-20T13:07:58.226Z,1.63
2023-02-20T13:10:31.483Z,2.30
2023-02-20T13:13:00.687Z,2.90
2023-02-20T13:15:39.447Z,4.83
2023-02-20T13:18:17.613Z,1.70
2023-02-20T13:20:50.610Z,5.53
2023-02-20T13:23:31.166Z,2.07
2023-02-20T13:25:59.702Z,2.87
2023-02-20T13:28:42.707Z,2.03
2023-02-20T13:31:22.816Z,1.63
2023-02-20T13:33:53.925Z,2.17
2023-02-20T13:36:44.425Z,1.43
2023-02-20T13:39:45.771Z,1.53
2023-02-20T13:42:36.483Z,2.27
2023-02-20T13:45:39.343Z,2.37
2023-02-20T13:48:21.813Z,2.33
2023-02-20T13:50:49.907Z,1.97
2023-02-20T13:53:19.487Z,1.90
2023-02-20T13:55:47.637Z,2.30
2023-02-20T13:58:17.601Z,2.20
2023-02-20T14:00:52.437Z,1.50
2023-02-20T14:03:24.238Z,1.80
2023-02-20T14:06:11.519Z,2.70
2023-02-20T14:08:43.506Z,2.33
2023-02-20T14:11:15.611Z,1.97
2023-02-20T14:13:48.167Z,2.33
2023-02-20T14:16:29.855Z,1.80
2023-02-20T14:18:59.810Z,2.03
2023-02-20T14:21:29.961Z,2.10
2023-02-20T14:24:18.441Z,3.30
2023-02-20T14:26:47.116Z,3.37
2023-02-20T14:29:24.277Z,2.33
2023-02-20T14:31:54.193Z,2.70
2023-02-20T14:34:28.700Z,3.13
2023-02-20T14:37:04.711Z,2.63
2023-02-20T14:39:45.197Z,1.90
2023-02-20T14:42:17.189Z,2.10
2023-02-20T14:44:50.096Z,2.33
2023-02-20T14:47:19.023Z,2.10
2023-02-20T14:49:47.419Z,2.70
2023-02-20T14:52:19.756Z,3.43
2023-02-20T14:54:59.350Z,2.53
2023-02-20T14:57:28.051Z,2.50
2023-02-20T15:00:11.132Z,1.83
2023-02-20T15:02:42.954Z,2.47
2023-02-20T15:05:16.614Z,1.80
2023-02-20T15:07:45.056Z,1.60
2023-02-20T15:13:10.732Z,2.23
2023-02-20T15:15:40.964Z,1.73
2023-02-20T15:18:17.433Z,1.80
2023-02-20T15:20:48.610Z,2.10
2023-02-20T15:23:26.779Z,2.10
2023-02-20T15:25:55.086Z,1.63
2023-02-20T15:28:30.679Z,1.80
2023-02-20T15:31:04.099Z,1.73
2023-02-20T15:33:34.090Z,2.40
2023-02-20T15:36:02.834Z,2.23
2023-02-20T15:38:32.986Z,2.07
2023-02-20T15:41:02.980Z,1.80
2023-02-20T15:43:51.045Z,1.50
2023-02-20T15:46:20.815Z,2.47
2023-02-20T15:48:49.516Z,1.97
2023-02-20T15:51:20.781Z,1.70
2023-02-20T15:53:49.219Z,1.90
2023-02-20T15:56:18.072Z,1.73
2023-02-20T15:58:49.279Z,1.90
2023-02-20T16:01:18.032Z,1.87
2023-02-20T16:03:54.713Z,1.80
2023-02-20T16:06:24.296Z,1.80
2023-02-20T16:08:54.426Z,3.23
2023-02-20T16:11:25.243Z,2.80
2023-02-20T16:13:57.592Z,2.97
2023-02-20T16:16:33.295Z,2.07
2023-02-20T16:19:01.420Z,2.07
2023-02-20T16:21:29.667Z,5.07
2023-02-20T16:23:57.821Z,9.80
2023-02-20T16:26:29.764Z,9.77
2023-02-20T16:29:01.351Z,6.17
2023-02-20T16:32:03.053Z,12.80
2023-02-20T16:34:32.607Z,7.23
2023-02-20T16:37:01.862Z,31.80
2023-02-20T16:39:30.021Z,20.43
2023-02-20T16:41:59.681Z,22.20
2023-02-20T16:44:35.650Z,5.60
2023-02-20T16:47:04.007Z,4.37
2023-02-20T16:49:37.147Z,2.50
2023-02-20T16:52:11.696Z,3.70
2023-02-20T16:54:39.962Z,5.23
2023-02-20T16:57:08.265Z,6.00
2023-02-20T16:59:37.832Z,6.73
2023-02-20T17:02:06.289Z,6.30
2023-02-20T17:04:35.156Z,6.57
2023-02-20T17:07:03.498Z,5.57
2023-02-20T17:09:43.070Z,5.43
2023-02-20T17:12:14.312Z,7.20
2023-02-20T17:14:44.138Z,24.53
2023-02-20T17:17:12.386Z,18.37
2023-02-20T17:19:42.124Z,9.30
2023-02-20T17:22:11.731Z,6.47
2023-02-20T17:24:41.057Z,6.57
2023-02-20T17:27:09.441Z,7.70
2023-02-20T17:29:37.651Z,10.00
2023-02-20T17:32:07.406Z,8.57
2023-02-20T17:34:35.806Z,8.47
2023-02-20T17:37:04.051Z,8.30
2023-02-20T17:39:32.359Z,7.10
2023-02-20T17:42:00.994Z,7.27
2023-02-20T17:44:31.164Z,5.97
2023-02-20T17:47:02.138Z,6.30
2023-02-20T17:49:31.783Z,8.07
2023-02-20T17:52:00.285Z,9.07
2023-02-20T17:54:31.833Z,9.90
2023-02-20T17:57:00.238Z,9.77
2023-02-20T17:59:30.555Z,12.57
2023-02-20T18:01:58.706Z,13.53
2023-02-20T18:04:26.901Z,6.53
2023-02-20T18:06:56.347Z,5.50
2023-02-20T18:09:24.449Z,6.67
2023-02-20T18:11:52.614Z,8.50
2023-02-20T18:14:21.099Z,9.10
2023-02-20T18:16:49.531Z,6.37
2023-02-20T18:19:18.917Z,5.33
2023-02-20T18:21:49.932Z,5.80
2023-02-20T18:24:24.473Z,5.47
2023-02-20T18:26:53.207Z,5.90
2023-02-20T18:29:21.648Z,8.40
2023-02-20T18:31:50.444Z,9.40
2023-02-20T18:34:19.189Z,9.10
2023-02-20T18:36:47.308Z,8.13
2023-02-20T18:39:15.900Z,8.57
2023-02-20T18:41:50.453Z,8.90
2023-02-20T18:44:19.512Z,8.33
2023-02-20T18:46:47.628Z,7.00
2023-02-20T18:49:16.233Z,7.03
2023-02-20T18:51:45.737Z,25.30
2023-02-20T18:54:18.831Z,15.63
2023-02-20T18:56:49.172Z,14.77
2023-02-20T18:59:17.494Z,10.87
2023-02-20T19:01:46.039Z,9.17
2023-02-20T19:04:15.367Z,8.40
2023-02-20T19:06:44.839Z,8.53
2023-02-20T19:09:16.024Z,9.30
2023-02-20T19:11:49.236Z,10.50
2023-02-20T19:14:19.399Z,12.83
2023-02-20T19:16:51.082Z,10.80
2023-02-20T19:19:23.941Z,11.23
2023-02-20T19:21:53.703Z,15.53
2023-02-20T19:24:22.786Z,10.67
2023-02-20T19:26:51.223Z,9.17
2023-02-20T19:29:21.089Z,10.40
2023-02-20T19:31:49.530Z,13.20
2023-02-20T19:34:17.893Z,11.20
2023-02-20T19:36:46.047Z,10.20
2023-02-20T19:39:15.390Z,10.10
2023-02-20T19:41:43.593Z,8.70
2023-02-20T19:44:16.011Z,9.93
2023-02-20T19:46:45.753Z,9.43
2023-02-20T19:49:13.907Z,10.80
2023-02-20T19:51:47.825Z,10.33
2023-02-20T19:54:16.938Z,10.83
2023-02-20T19:56:54.697Z,10.43
2023-02-20T19:59:23.244Z,10.03
2023-02-20T20:01:54.947Z,11.50
2023-02-20T20:04:24.928Z,10.90
2023-02-20T20:06:53.922Z,14.80
2023-02-20T20:09:35.784Z,15.20
2023-02-20T20:12:26.390Z,12.53
2023-02-20T20:14:54.544Z,12.43
2023-02-20T20:17:24.272Z,10.73
2023-02-20T20:19:58.826Z,10.60
2023-02-20T20:22:29.074Z,10.23
2023-02-20T20:24:57.356Z,10.00
2023-02-20T20:27:25.521Z,9.30
2023-02-20T20:29:53.685Z,15.63
2023-02-20T20:32:23.793Z,19.90
2023-02-20T20:34:55.031Z,21.27
2023-02-20T20:37:24.720Z,16.10
2023-02-20T20:39:53.544Z,12.53
2023-02-20T20:42:23.930Z,7.27
2023-02-20T20:44:52.781Z,5.20
2023-02-20T20:47:21.721Z,7.20
2023-02-20T20:49:51.264Z,7.50
2023-02-20T20:52:19.734Z,6.20
2023-02-20T20:54:50.105Z,5.30
2023-02-20T20:57:18.901Z,5.27
2023-02-20T20:59:47.414Z,5.90
2023-02-20T21:02:15.692Z,6.10
2023-02-20T21:04:44.265Z,5.27
2023-02-20T21:07:13.803Z,5.77
2023-02-20T21:09:42.917Z,3.73
2023-02-20T21:12:11.377Z,4.43
2023-02-20T21:14:41.594Z,6.70
2023-02-20T21:17:10.601Z,6.53
2023-02-20T21:19:39.370Z,10.60
2023-02-20T21:22:07.637Z,9.03
2023-02-20T21:24:38.642Z,11.73
2023-02-20T21:27:07.314Z,11.90
2023-02-20T21:29:35.990Z,12.40
2023-02-20T21:32:04.398Z,14.13
2023-02-20T21:34:32.586Z,14.70
2023-02-20T21:37:00.986Z,13.90
2023-02-20T21:39:29.077Z,15.63
2023-02-20T21:42:16.052Z,11.90
2023-02-20T21:44:47.656Z,12.97
2023-02-20T21:47:17.116Z,11.80
2023-02-20T21:49:47.599Z,11.27
2023-02-20T21:52:16.623Z,11.77
2023-02-20T21:54:49.479Z,9.63
2023-02-20T21:57:19.771Z,9.57
2023-02-20T21:59:46.761Z,7.40
2023-02-20T22:02:16.952Z,7.17
2023-02-20T22:04:44.215Z,6.20
2023-02-20T22:07:30.110Z,5.83
2023-02-20T22:10:15.432Z,8.17
2023-02-20T22:13:02.616Z,7.80
2023-02-20T22:15:48.796Z,8.30
2023-02-20T22:18:35.014Z,8.10
2023-02-20T22:21:20.351Z,6.37
2023-02-20T22:24:05.710Z,9.03
2023-02-20T22:26:50.980Z,7.67
2023-02-20T22:29:38.188Z,7.20
2023-02-20T22:32:24.305Z,6.90
2023-02-20T22:35:13.947Z,6.37
2023-02-20T22:38:03.509Z,5.67
2023-02-20T22:40:49.541Z,4.87
2023-02-20T22:43:35.330Z,3.27
2023-02-20T22:46:22.645Z,3.63
2023-02-20T22:49:08.214Z,5.00
2023-02-20T22:51:53.581Z,5.03
2023-02-20T22:54:40.896Z,5.70
2023-02-20T22:57:26.922Z,4.77
2023-02-20T23:00:12.421Z,5.70
2023-02-20T23:02:59.207Z,4.47
2023-02-20T23:05:44.670Z,6.03
2023-02-20T23:08:30.548Z,4.77
2023-02-20T23:11:16.319Z,4.90
2023-02-20T23:14:04.576Z,4.93
2023-02-20T23:16:50.006Z,6.00
2023-02-20T23:19:37.028Z,6.30
2023-02-20T23:22:23.006Z,7.17
2023-02-20T23:25:08.429Z,5.80
2023-02-20T23:27:54.460Z,4.10
2023-02-20T23:30:39.962Z,3.87
2023-02-20T23:33:25.556Z,3.40
2023-02-20T23:36:12.643Z,3.97
2023-02-20T23:38:58.624Z,4.47
2023-02-20T23:41:44.813Z,3.73
2023-02-20T23:44:31.243Z,3.50
2023-02-20T23:47:16.775Z,2.83
2023-02-20T23:50:02.436Z,2.50
2023-02-20T23:52:49.315Z,2.60
2023-02-20T23:55:35.532Z,2.67
2023-02-20T23:58:21.717Z,1.77
